Time;durP1;ratioP1;P1;durP2;ratioP2;P2;SDS_P1;SDS_P2;PMS_P1;PMS_P2;Temp;Humidity;BMP_temperature;BMP_pressure;BME280_temperature;BME280_humidity;BME280_pressure;Samples;Min_cycle;Max_cycle;Signal;HPM_P1;HPM_P2
2023/06/10 00:02:08;;;;;;;18.87;7.70;;;;;;;40.81;36.52;101257.38;6155854;23;20377;-82
2023/06/10 00:04:36;;;;;;;23.57;9.03;;;;;;;40.75;36.15;101255.91;6156918;23;20439;-84
2023/06/10 00:07:08;;;;;;;22.57;8.50;;;;;;;40.67;36.10;101247.75;6181245;23;20718;-84
2023/06/10 00:09:37;;;;;;;18.20;7.43;;;;;;;40.74;36.24;101237.19;6179327;23;20384;-82
2023/06/10 00:12:09;;;;;;;31.73;8.57;;;;;;;40.66;36.27;101219.75;6182727;23;20432;-82
2023/06/10 00:14:42;;;;;;;17.23;6.80;;;;;;;40.61;36.10;101224.53;6183093;23;20384;-81
2023/06/10 00:17:11;;;;;;;20.03;9.30;;;;;;;40.61;36.65;101216.38;6181252;23;20719;-82
2023/06/10 00:19:41;;;;;;;35.93;9.07;;;;;;;40.58;37.09;101215.09;6155221;23;20513;-82
2023/06/10 00:22:09;;;;;;;18.30;7.80;;;;;;;40.54;37.09;101205.97;6180559;23;20380;-82
2023/06/10 00:24:35;;;;;;;18.07;6.37;;;;;;;40.51;36.92;101193.78;6181655;23;20411;-82
2023/06/10 00:27:01;;;;;;;18.07;7.70;;;;;;;40.55;36.44;101186.63;6183008;23;20440;-82
2023/06/10 00:29:27;;;;;;;19.80;8.90;;;;;;;40.53;36.22;101180.69;6157349;23;20435;-81
2023/06/10 00:31:57;;;;;;;26.57;8.73;;;;;;;40.50;36.10;101175.09;6157825;23;20181;-82
2023/06/10 00:34:23;;;;;;;25.03;8.73;;;;;;;40.49;35.52;101174.28;6157014;23;20455;-82
2023/06/10 00:36:50;;;;;;;27.53;9.10;;;;;;;40.55;36.33;101169.50;6182151;23;20380;-82
2023/06/10 00:39:16;;;;;;;24.10;7.63;;;;;;;40.59;36.48;101165.03;6157075;23;20391;-82
2023/06/10 00:41:42;;;;;;;20.87;7.13;;;;;;;40.62;36.26;101161.66;6157326;23;20749;-82
2023/06/10 00:44:09;;;;;;;16.87;8.73;;;;;;;40.55;36.00;101153.19;6181679;23;20392;-81
2023/06/10 00:46:35;;;;;;;13.33;6.10;;;;;;;40.51;35.38;101150.28;6182869;23;20391;-81
2023/06/10 00:49:01;;;;;;;16.73;7.23;;;;;;;40.45;35.87;101151.53;6159135;23;20388;-81
2023/06/10 00:51:27;;;;;;;19.17;8.07;;;;;;;40.42;37.04;101157.59;6184252;23;20422;-81
2023/06/10 00:53:53;;;;;;;20.00;9.43;;;;;;;40.32;37.24;101171.50;6159778;23;20385;-81
2023/06/10 00:56:20;;;;;;;21.00;11.50;;;;;;;40.32;36.83;101170.69;6199240;23;20432;-81
2023/06/10 00:58:47;;;;;;;23.20;8.80;;;;;;;40.37;36.43;101174.06;6183902;23;20408;-81
2023/06/10 01:01:13;;;;;;;11.17;7.10;;;;;;;40.37;37.10;101162.38;6183059;23;20373;-81
2023/06/10 01:03:40;;;;;;;13.60;8.17;;;;;;;40.33;37.53;101164.13;6184160;23;20467;-81
2023/06/10 01:06:09;;;;;;;21.90;8.80;;;;;;;40.29;37.93;101172.94;6183905;23;20153;-82
2023/06/10 01:08:46;;;;;;;14.37;7.37;;;;;;;39.57;39.14;101166.94;6184078;23;20388;-81
2023/06/10 01:11:23;;;;;;;10.47;6.13;;;;;;;39.69;38.60;101173.44;6183970;23;20435;-81
2023/06/10 01:13:51;;;;;;;10.13;4.40;;;;;;;39.45;38.71;101170.22;6184043;23;20841;-80
2023/06/10 01:16:20;;;;;;;8.10;3.90;;;;;;;39.42;38.87;101168.94;6183959;23;20860;-81
2023/06/10 01:18:46;;;;;;;6.87;3.37;;;;;;;39.34;38.91;101160.72;6184135;23;20441;-81
2023/06/10 01:21:21;;;;;;;6.60;3.10;;;;;;;39.32;38.70;101150.19;6184230;23;20767;-81
2023/06/10 01:23:47;;;;;;;9.80;3.90;;;;;;;39.25;38.90;101143.59;6185986;23;20156;-81
2023/06/10 01:26:15;;;;;;;7.87;3.87;;;;;;;39.38;38.79;101156.28;6183812;23;20392;-81
2023/06/10 01:28:54;;;;;;;9.07;4.37;;;;;;;39.01;39.10;101144.66;6183752;23;20857;-81
2023/06/10 01:31:33;;;;;;;7.63;3.90;;;;;;;38.88;39.35;101138.16;6208870;23;20486;-81
2023/06/10 01:34:02;;;;;;;12.87;4.43;;;;;;;38.90;38.91;101135.94;6183653;23;20384;-81
2023/06/10 01:36:29;;;;;;;12.67;4.40;;;;;;;39.13;38.77;101136.78;6183880;23;20895;-81
2023/06/10 01:38:56;;;;;;;8.87;4.73;;;;;;;39.15;38.71;101134.53;6183748;23;20384;-81
2023/06/10 01:41:23;;;;;;;7.17;3.63;;;;;;;39.05;38.58;101126.66;6183789;23;20380;-80
2023/06/10 01:43:49;;;;;;;13.23;4.60;;;;;;;38.92;38.92;101119.38;6183589;23;20472;-81
2023/06/10 01:46:19;;;;;;;9.80;4.67;;;;;;;39.11;38.25;101111.88;6183743;23;20384;-81
2023/06/10 01:48:45;;;;;;;8.63;3.93;;;;;;;39.05;38.57;101109.59;6183716;23;20391;-81
2023/06/10 01:51:11;;;;;;;11.93;5.10;;;;;;;39.00;39.19;101115.13;6184099;23;20427;-81
2023/06/10 01:53:37;;;;;;;11.60;3.90;;;;;;;39.17;38.72;101099.81;6183625;23;20389;-81
2023/06/10 01:56:03;;;;;;;12.03;4.70;;;;;;;39.19;38.53;101105.72;6183008;23;20209;-81
2023/06/10 01:58:29;;;;;;;22.33;5.40;;;;;;;39.09;38.91;101103.22;6183713;23;20191;-81
2023/06/10 02:00:55;;;;;;;12.90;5.50;;;;;;;39.18;39.16;101095.97;6183633;23;20377;-81
2023/06/10 02:03:21;;;;;;;10.63;5.30;;;;;;;39.09;39.20;101084.22;6183468;23;20380;-81
2023/06/10 02:05:46;;;;;;;9.50;5.50;;;;;;;39.17;38.96;101088.97;6183321;23;20493;-81
2023/06/10 02:08:12;;;;;;;11.30;5.53;;;;;;;39.07;39.65;101085.66;6183239;23;20845;-81
2023/06/10 02:10:38;;;;;;;8.97;5.53;;;;;;;38.91;39.17;101079.78;6182950;23;20185;-81
2023/06/10 02:13:04;;;;;;;9.47;5.70;;;;;;;38.83;39.33;101075.09;6185097;23;20392;-81
2023/06/10 02:15:30;;;;;;;9.10;4.70;;;;;;;38.89;39.04;101071.97;6183406;23;20376;-81
2023/06/10 02:17:57;;;;;;;9.40;4.63;;;;;;;39.01;38.70;101079.56;6183238;23;20472;-81
2023/06/10 02:20:23;;;;;;;9.77;4.13;;;;;;;38.95;38.72;101072.66;6183632;23;20183;-82
2023/06/10 02:22:49;;;;;;;10.40;5.27;;;;;;;39.13;38.32;101071.66;6183389;23;20384;-81
2023/06/10 02:25:15;;;;;;;7.90;3.80;;;;;;;39.03;38.60;101085.47;6185010;23;20435;-81
2023/06/10 02:27:41;;;;;;;12.33;4.60;;;;;;;39.21;38.33;101087.22;6183079;23;20412;-81
2023/06/10 02:30:10;;;;;;;12.17;5.67;;;;;;;39.27;38.47;101079.75;6183235;23;20801;-81
2023/06/10 02:32:36;;;;;;;11.20;5.43;;;;;;;39.29;38.60;101068.56;6183563;23;20157;-81
2023/06/10 02:35:02;;;;;;;9.33;5.30;;;;;;;39.40;38.25;101075.34;6183209;23;20404;-81
2023/06/10 02:37:28;;;;;;;10.03;5.70;;;;;;;39.32;38.75;101074.19;6183244;23;20475;-81
2023/06/10 02:39:54;;;;;;;11.17;6.50;;;;;;;39.26;38.38;101077.34;6183059;23;20416;-81
2023/06/10 02:42:20;;;;;;;10.17;5.57;;;;;;;39.26;38.45;101071.91;6183538;23;20153;-81
2023/06/10 02:44:46;;;;;;;14.47;6.00;;;;;;;39.20;39.05;101068.53;6183300;23;20395;-81
2023/06/10 02:47:12;;;;;;;11.70;5.50;;;;;;;39.28;38.52;101061.53;6182953;23;20181;-81
2023/06/10 02:49:38;;;;;;;10.40;5.40;;;;;;;39.40;38.20;101049.00;6183216;23;20160;-81
2023/06/10 02:52:04;;;;;;;19.10;5.93;;;;;;;39.42;38.60;101044.09;6184945;23;20179;-81
2023/06/10 02:54:30;;;;;;;16.10;5.87;;;;;;;39.41;38.36;101025.38;6183215;23;20176;-81
2023/06/10 02:56:56;;;;;;;14.10;5.70;;;;;;;39.37;38.61;101021.69;6183032;23;20443;-81
2023/06/10 02:59:22;;;;;;;9.80;5.83;;;;;;;39.45;38.70;101020.94;6183134;23;20153;-81
2023/06/10 03:01:48;;;;;;;15.90;5.90;;;;;;;39.44;38.26;101032.91;6183028;23;20404;-81
2023/06/10 03:04:14;;;;;;;11.83;5.60;;;;;;;39.54;38.45;101038.06;6183000;23;20392;-81
2023/06/10 03:06:45;;;;;;;10.67;6.37;;;;;;;39.56;38.59;101033.13;6183050;23;20153;-81
2023/06/10 03:09:11;;;;;;;11.20;5.77;;;;;;;39.60;38.34;101039.56;6183016;23;20424;-81
2023/06/10 03:11:37;;;;;;;12.80;6.10;;;;;;;39.59;38.56;101028.97;6182902;23;20440;-81
2023/06/10 03:14:03;;;;;;;10.90;4.73;;;;;;;39.60;38.38;101033.31;6182929;23;20388;-80
2023/06/10 03:16:30;;;;;;;10.93;6.07;;;;;;;39.66;38.28;101037.50;6183005;23;20388;-81
2023/06/10 03:18:56;;;;;;;14.30;5.73;;;;;;;39.64;38.36;101034.28;6183302;23;20477;-81
2023/06/10 03:21:22;;;;;;;11.77;5.70;;;;;;;39.63;38.54;101038.13;6182853;23;20396;-81
2023/06/10 03:23:48;;;;;;;12.30;6.00;;;;;;;39.62;38.69;101031.88;6207885;23;20384;-81
2023/06/10 03:26:15;;;;;;;10.60;6.00;;;;;;;39.65;38.62;101030.44;6182892;23;20745;-81
2023/06/10 03:28:41;;;;;;;11.73;6.50;;;;;;;39.51;38.92;101033.25;6183299;23;20471;-81
2023/06/10 03:31:07;;;;;;;14.67;7.30;;;;;;;39.50;39.14;101037.88;6183170;23;20467;-81
2023/06/10 03:33:34;;;;;;;13.40;6.70;;;;;;;39.49;39.16;101033.56;6183032;23;20415;-81
2023/06/10 03:36:00;;;;;;;22.83;8.47;;;;;;;39.54;39.03;101032.63;6184485;23;20479;-81
2023/06/10 03:38:28;;;;;;;15.10;6.87;;;;;;;39.44;39.16;101043.75;6183340;23;20865;-81
2023/06/10 03:40:54;;;;;;;24.73;5.87;;;;;;;39.58;38.84;101039.03;6182698;23;20389;-81
2023/06/10 03:43:20;;;;;;;19.53;7.30;;;;;;;39.53;38.72;101043.78;6182844;23;20385;-81
2023/06/10 03:45:46;;;;;;;21.23;8.63;;;;;;;39.58;38.69;101043.66;6184900;23;20586;-81
2023/06/10 03:48:12;;;;;;;21.20;7.40;;;;;;;39.59;38.61;101045.25;6182867;23;20860;-81
2023/06/10 03:50:38;;;;;;;30.80;11.10;;;;;;;39.61;38.81;101059.38;6182201;23;20522;-81
2023/06/10 03:53:04;;;;;;;27.90;8.07;;;;;;;39.49;38.99;101054.50;6183015;23;20426;-81
2023/06/10 03:55:31;;;;;;;29.23;8.70;;;;;;;39.47;39.20;101064.84;6187516;23;20278;-80
2023/06/10 03:57:58;;;;;;;20.33;6.97;;;;;;;39.34;39.10;101066.53;6187860;23;20746;-81
2023/06/10 04:00:26;;;;;;;16.63;5.50;;;;;;;39.29;39.51;101079.44;6187498;23;20734;-81
2023/06/10 04:02:52;;;;;;;22.80;6.70;;;;;;;39.27;39.18;101081.66;6214999;23;20371;-81
2023/06/10 04:05:22;;;;;;;23.23;7.63;;;;;;;39.27;39.45;101085.16;6187939;23;20383;-81
2023/06/10 04:07:48;;;;;;;22.60;6.70;;;;;;;39.11;39.60;101084.75;6187716;23;20848;-81
2023/06/10 04:10:15;;;;;;;20.07;7.10;;;;;;;39.08;39.23;101082.63;6187119;23;20485;-80
2023/06/10 04:12:41;;;;;;;14.73;7.67;;;;;;;39.02;38.95;101086.56;6187525;23;20411;-81
2023/06/10 04:15:08;;;;;;;10.47;4.60;;;;;;;39.06;38.95;101093.00;6187353;23;20383;-82
2023/06/10 04:17:34;;;;;;;19.13;7.13;;;;;;;39.03;39.27;101098.22;6187592;23;20387;-81
2023/06/10 04:20:00;;;;;;;17.03;7.20;;;;;;;38.86;39.32;101104.34;6187414;23;20375;-81
2023/06/10 04:22:26;;;;;;;19.00;6.83;;;;;;;38.93;39.35;101110.13;6187724;23;20396;-81
2023/06/10 04:24:53;;;;;;;22.77;7.90;;;;;;;38.99;39.29;101113.53;6187134;23;20863;-82
2023/06/10 04:27:19;;;;;;;16.40;6.67;;;;;;;38.93;38.96;101110.13;6187450;23;20418;-81
2023/06/10 04:29:45;;;;;;;32.70;8.00;;;;;;;39.00;39.16;101115.94;6187397;23;20379;-81
2023/06/10 04:32:11;;;;;;;32.00;8.30;;;;;;;39.08;39.03;101117.09;6187574;23;20427;-81
2023/06/10 04:34:40;;;;;;;17.17;7.70;;;;;;;39.06;38.91;101116.63;6188123;23;20501;-81
2023/06/10 04:37:06;;;;;;;20.40;8.47;;;;;;;38.91;39.39;101117.75;6189373;23;20259;-81
2023/06/10 04:39:32;;;;;;;21.90;9.80;;;;;;;38.97;39.34;101121.97;6189089;23;20739;-81
2023/06/10 04:41:59;;;;;;;18.20;7.83;;;;;;;38.90;39.20;101121.59;6189234;23;20386;-81
2023/06/10 04:44:26;;;;;;;31.60;10.13;;;;;;;38.96;39.42;101133.91;6189197;23;20407;-82
2023/06/10 04:46:51;;;;;;;33.60;13.67;;;;;;;38.96;39.54;101136.63;6189425;23;20414;-81
2023/06/10 04:49:17;;;;;;;33.00;9.40;;;;;;;38.88;40.45;101145.50;6188572;23;20387;-81
2023/06/10 04:51:43;;;;;;;23.60;8.40;;;;;;;38.88;40.42;101150.94;6189181;23;20569;-81
2023/06/10 04:54:09;;;;;;;21.57;8.00;;;;;;;38.75;40.26;101146.34;6189019;23;20860;-82
2023/06/10 04:56:36;;;;;;;22.87;8.50;;;;;;;38.74;40.17;101139.31;6183337;23;20431;-81
2023/06/10 04:59:02;;;;;;;36.97;9.77;;;;;;;38.53;40.35;101137.00;6184500;23;20235;-81
2023/06/10 05:01:28;;;;;;;20.83;6.47;;;;;;;38.58;40.06;101149.66;6183865;23;20466;-81
2023/06/10 05:03:53;;;;;;;23.60;6.00;;;;;;;38.69;40.27;101146.44;6184257;23;20165;-81
2023/06/10 05:06:19;;;;;;;14.73;5.50;;;;;;;38.80;39.55;101162.50;6183819;23;20153;-82
2023/06/10 05:08:45;;;;;;;19.33;7.00;;;;;;;38.81;39.76;101167.63;6184529;23;20157;-81
2023/06/10 05:11:11;;;;;;;9.73;3.70;;;;;;;38.76;39.29;101170.44;6183964;23;20439;-81
2023/06/10 05:13:37;;;;;;;22.03;4.97;;;;;;;38.82;39.42;101176.56;6184002;23;20388;-81
2023/06/10 05:16:03;;;;;;;20.03;7.40;;;;;;;38.80;39.94;101176.88;6184837;23;20388;-81
2023/06/10 05:18:29;;;;;;;24.70;6.73;;;;;;;38.70;39.45;101180.56;6184146;23;20411;-82
2023/06/10 05:20:55;;;;;;;20.23;9.83;;;;;;;38.81;40.02;101172.25;6183986;23;20727;-81
2023/06/10 05:23:21;;;;;;;23.67;7.50;;;;;;;38.84;39.54;101163.50;6184178;23;20160;-81
2023/06/10 05:25:47;;;;;;;23.63;6.63;;;;;;;38.84;39.84;101160.78;6183883;23;20177;-81
2023/06/10 05:28:13;;;;;;;25.97;7.00;;;;;;;38.94;39.26;101172.19;6183912;23;20168;-81
2023/06/10 05:30:39;;;;;;;10.80;5.33;;;;;;;38.93;39.25;101180.66;6185398;23;20431;-81
2023/06/10 05:33:05;;;;;;;16.83;6.73;;;;;;;38.91;38.92;101182.84;6183636;23;20395;-82
2023/06/10 05:35:31;;;;;;;19.20;5.93;;;;;;;38.74;39.28;101182.72;6183875;23;20426;-81
2023/06/10 05:37:57;;;;;;;21.83;7.13;;;;;;;38.72;39.15;101180.28;6185572;23;20411;-81
2023/06/10 05:40:23;;;;;;;21.97;6.57;;;;;;;38.63;39.03;101172.03;6183917;23;20391;-81
2023/06/10 05:42:49;;;;;;;18.17;4.97;;;;;;;38.64;39.28;101178.28;6183881;23;20392;-81
2023/06/10 05:45:15;;;;;;;15.13;6.00;;;;;;;38.72;39.35;101191.13;6183676;23;20388;-81
2023/06/10 05:47:41;;;;;;;15.03;6.73;;;;;;;38.85;38.94;101194.91;6183840;23;20411;-81
2023/06/10 05:50:08;;;;;;;17.43;5.97;;;;;;;38.93;38.84;101202.34;6183266;23;20494;-82
2023/06/10 05:52:40;;;;;;;10.97;5.87;;;;;;;39.00;39.05;101207.34;6183720;23;20467;-81
2023/06/10 05:55:07;;;;;;;15.63;5.73;;;;;;;38.99;38.75;101206.56;6187615;22;20525;-82
2023/06/10 05:57:33;;;;;;;16.10;5.60;;;;;;;38.99;39.28;101203.84;6189161;23;20380;-81
2023/06/10 05:59:59;;;;;;;15.80;6.30;;;;;;;38.94;39.50;101203.94;6188524;23;20378;-81
2023/06/10 06:02:26;;;;;;;21.23;7.27;;;;;;;38.90;39.31;101202.94;6188550;23;20765;-81
2023/06/10 06:04:52;;;;;;;16.20;6.33;;;;;;;38.88;39.46;101210.59;6188339;23;20499;-81
2023/06/10 06:07:20;;;;;;;20.73;5.93;;;;;;;38.86;39.33;101201.97;6188610;23;20379;-81
2023/06/10 06:09:47;;;;;;;12.20;6.00;;;;;;;38.89;39.44;101209.47;6188435;23;20375;-82
2023/06/10 06:12:13;;;;;;;14.43;8.47;;;;;;;38.89;39.58;101215.72;6215491;23;20412;-81
2023/06/10 06:14:42;;;;;;;11.03;5.63;;;;;;;38.84;38.82;101229.38;6188231;23;20386;-81
2023/06/10 06:17:08;;;;;;;13.13;5.43;;;;;;;38.94;38.78;101236.50;6188442;23;20379;-81
2023/06/10 06:19:34;;;;;;;9.63;4.90;;;;;;;38.90;38.94;101235.50;6188216;23;20379;-81
2023/06/10 06:22:00;;;;;;;12.17;5.53;;;;;;;38.85;38.88;101238.31;6188378;23;20446;-81
2023/06/10 06:24:26;;;;;;;9.00;3.80;;;;;;;38.92;38.43;101244.94;6188347;23;20403;-81
2023/06/10 06:26:52;;;;;;;8.27;3.60;;;;;;;38.93;38.55;101243.84;6188226;23;20445;-81
2023/06/10 06:29:20;;;;;;;8.43;3.97;;;;;;;38.99;38.76;101232.88;6188251;23;20731;-81
2023/06/10 06:31:46;;;;;;;11.60;4.60;;;;;;;38.96;38.37;101223.44;6187660;23;20237;-82
2023/06/10 06:34:12;;;;;;;8.97;4.33;;;;;;;38.97;38.90;101219.59;6188135;23;20383;-81
2023/06/10 06:36:38;;;;;;;8.50;4.50;;;;;;;39.03;38.57;101223.81;6188214;23;20156;-81
2023/06/10 06:39:04;;;;;;;10.57;4.97;;;;;;;39.09;38.26;101229.94;6187962;23;20160;-81
2023/06/10 06:41:30;;;;;;;8.20;3.77;;;;;;;39.10;38.86;101234.25;6215449;23;20152;-82
2023/06/10 06:43:56;;;;;;;12.50;6.77;;;;;;;39.16;38.57;101233.84;6188123;23;20380;-81
2023/06/10 06:46:22;;;;;;;9.50;5.20;;;;;;;39.15;38.04;101228.72;6188159;23;20173;-81
2023/06/10 06:48:48;;;;;;;17.83;5.40;;;;;;;39.11;38.70;101230.44;6188170;23;20148;-81
2023/06/10 06:51:14;;;;;;;14.73;5.80;;;;;;;39.13;38.65;101244.50;6187819;23;20419;-81
2023/06/10 06:53:46;;;;;;;13.90;7.80;;;;;;;39.12;38.24;101240.97;6188112;23;20380;-81
2023/06/10 06:56:12;;;;;;;22.77;7.60;;;;;;;39.13;38.48;101253.44;6182671;23;20447;-83
2023/06/10 06:58:38;;;;;;;16.40;7.70;;;;;;;39.15;38.43;101258.56;6182967;23;20396;-81
2023/06/10 07:01:04;;;;;;;20.13;7.67;;;;;;;39.16;38.58;101271.84;6183143;23;20447;-81
2023/06/10 07:03:30;;;;;;;26.80;11.23;;;;;;;39.11;38.65;101266.50;6182955;23;20379;-80
2023/06/10 07:05:56;;;;;;;16.53;9.57;;;;;;;39.02;38.65;101281.88;6183239;23;20412;-80
2023/06/10 07:08:22;;;;;;;19.67;9.00;;;;;;;39.04;38.75;101278.88;6182819;23;20388;-79
2023/06/10 07:10:49;;;;;;;28.80;8.63;;;;;;;39.05;38.86;101281.28;6182769;23;20446;-79
2023/06/10 07:13:15;;;;;;;19.00;8.53;;;;;;;39.07;38.67;101279.06;6182910;23;20156;-79
2023/06/10 07:15:41;;;;;;;22.10;9.87;;;;;;;39.06;38.69;101282.91;6182851;23;20376;-79
2023/06/10 07:18:07;;;;;;;21.43;9.13;;;;;;;39.07;38.80;101284.50;6181906;23;20780;-78
2023/06/10 07:20:33;;;;;;;27.67;11.63;;;;;;;39.06;38.70;101282.09;6182855;23;20149;-79
2023/06/10 07:22:58;;;;;;;15.70;10.17;;;;;;;39.06;38.63;101273.97;6183081;23;20384;-78
2023/06/10 07:25:24;;;;;;;19.53;10.57;;;;;;;39.05;38.65;101275.88;6182812;23;20632;-80
2023/06/10 07:27:50;;;;;;;20.40;10.37;;;;;;;39.06;38.67;101276.66;6182703;23;20212;-78
2023/06/10 07:30:16;;;;;;;21.03;12.37;;;;;;;39.04;38.73;101265.31;6182792;23;20157;-80
2023/06/10 07:32:43;;;;;;;28.03;14.10;;;;;;;39.09;38.84;101257.84;6182911;23;20612;-80
2023/06/10 07:35:11;;;;;;;33.67;15.63;;;;;;;39.12;38.60;101256.47;6182825;23;20390;-79
2023/06/10 07:37:37;;;;;;;21.47;14.10;;;;;;;39.07;38.91;101251.94;6182969;23;20392;-78
2023/06/10 07:40:03;;;;;;;21.10;12.90;;;;;;;39.09;38.94;101252.44;6182782;23;20408;-77
2023/06/10 07:42:29;;;;;;;25.33;15.33;;;;;;;39.14;39.17;101259.66;6182828;23;20456;-79
2023/06/10 07:44:55;;;;;;;17.03;11.53;;;;;;;39.14;38.71;101273.22;6184992;23;20716;-77
2023/06/10 07:47:21;;;;;;;15.77;11.20;;;;;;;39.14;38.55;101282.16;6182739;23;20923;-77
2023/06/10 07:49:47;;;;;;;16.57;11.53;;;;;;;39.14;38.47;101279.47;6183109;23;20163;-77
2023/06/10 07:52:13;;;;;;;16.30;11.43;;;;;;;39.14;38.60;101289.50;6182352;23;20187;-77
2023/06/10 07:54:38;;;;;;;19.67;12.10;;;;;;;39.14;38.84;101287.59;6181862;23;20235;-77
2023/06/10 07:57:06;;;;;;;18.07;13.53;;;;;;;39.21;38.67;101295.34;6182477;23;20483;-76
2023/06/10 07:59:33;;;;;;;16.17;12.37;;;;;;;39.18;38.38;101294.06;6183074;23;20853;-77
2023/06/10 08:01:58;;;;;;;17.33;11.20;;;;;;;39.26;38.80;101295.25;6181931;23;20387;-78
2023/06/10 08:04:24;;;;;;;23.13;11.57;;;;;;;39.24;38.79;101292.03;6182485;23;20399;-81
2023/06/10 08:06:50;;;;;;;21.40;12.30;;;;;;;39.26;39.03;101291.72;6182151;23;20380;-79
2023/06/10 08:09:18;;;;;;;14.50;11.10;;;;;;;39.33;38.56;101292.09;6182813;23;20408;-80
2023/06/10 08:11:46;;;;;;;16.10;11.30;;;;;;;39.36;39.38;101297.75;6184197;23;20534;-79
2023/06/10 08:14:12;;;;;;;20.33;12.03;;;;;;;39.36;39.53;101300.44;6183994;23;20491;-78
2023/06/10 08:16:38;;;;;;;15.43;12.30;;;;;;;39.42;39.19;101301.16;6184408;23;20467;-79
2023/06/10 08:19:04;;;;;;;17.63;13.63;;;;;;;39.41;39.42;101296.81;6184261;23;20387;-78
2023/06/10 08:21:30;;;;;;;19.30;14.23;;;;;;;39.44;39.51;101305.16;6183290;23;20531;-78
2023/06/10 08:23:56;;;;;;;26.33;13.00;;;;;;;39.45;39.52;101305.94;6182801;23;20415;-78
2023/06/10 08:26:24;;;;;;;15.57;11.90;;;;;;;39.51;38.74;101302.00;6181830;23;20861;-78
2023/06/10 08:28:50;;;;;;;21.23;14.87;;;;;;;39.48;38.81;101300.72;6183166;23;20419;-78
2023/06/10 08:31:16;;;;;;;23.40;15.40;;;;;;;39.48;39.09;101305.34;6182162;23;20435;-79
2023/06/10 08:33:42;;;;;;;24.60;12.80;;;;;;;39.38;38.90;101303.66;6183800;23;20414;-81
2023/06/10 08:36:08;;;;;;;26.20;13.30;;;;;;;39.35;38.86;101295.31;6184838;23;20357;-79
2023/06/10 08:38:34;;;;;;;34.37;13.10;;;;;;;39.45;39.09;101304.03;6183065;23;20879;-79
2023/06/10 08:41:01;;;;;;;22.07;11.73;;;;;;;39.46;38.93;101292.06;6184223;23;20418;-80
2023/06/10 08:43:42;;;;;;;26.70;12.70;;;;;;;39.47;38.80;101290.97;6182828;23;20153;-80
2023/06/10 08:46:09;;;;;;;27.70;12.50;;;;;;;39.57;38.95;101287.22;6182909;23;20388;-80
2023/06/10 08:48:43;;;;;;;20.90;12.90;;;;;;;39.57;39.29;101280.97;6183691;23;20388;-82
2023/06/10 08:51:10;;;;;;;29.97;15.13;;;;;;;39.47;39.39;101282.00;6183760;23;20514;-80
2023/06/10 08:53:42;;;;;;;23.37;10.30;;;;;;;39.52;39.74;101292.75;6183676;23;20439;-85
2023/06/10 08:56:09;;;;;;;22.00;12.27;;;;;;;39.65;39.14;101300.06;6183751;23;20929;-84
2023/06/10 08:58:41;;;;;;;21.87;11.67;;;;;;;39.73;39.44;101302.06;6183714;23;20446;-80
2023/06/10 09:01:08;;;;;;;21.77;13.03;;;;;;;39.71;39.16;101292.59;6183379;23;20388;-80
2023/06/10 09:03:37;;;;;;;18.20;11.83;;;;;;;39.72;39.73;101295.03;6184599;23;20387;-81
2023/06/10 09:06:05;;;;;;;20.40;12.37;;;;;;;39.68;39.59;101287.81;6183297;23;20392;-81
2023/06/10 09:08:35;;;;;;;32.00;12.43;;;;;;;39.86;40.12;101289.53;6182167;23;20380;-81
2023/06/10 09:11:01;;;;;;;20.10;10.10;;;;;;;39.90;39.65;101285.09;6183329;23;20428;-82
2023/06/10 09:13:27;;;;;;;18.30;8.93;;;;;;;39.97;38.86;101290.88;6184008;23;20459;-80
2023/06/10 09:15:56;;;;;;;30.83;9.60;;;;;;;40.03;39.16;101284.22;6184592;23;20439;-80
2023/06/10 09:18:23;;;;;;;17.10;10.80;;;;;;;39.95;39.03;101284.94;6184016;23;20713;-80
2023/06/10 09:20:49;;;;;;;21.40;11.43;;;;;;;39.91;39.83;101281.25;6180309;23;20377;-80
2023/06/10 09:23:16;;;;;;;19.80;11.03;;;;;;;39.99;39.14;101285.94;6183261;23;20404;-79
2023/06/10 09:25:42;;;;;;;22.50;9.63;;;;;;;39.92;39.48;101277.44;6183767;23;20384;-80
2023/06/10 09:28:15;;;;;;;33.77;11.57;;;;;;;39.86;39.54;101283.31;6185577;23;20368;-80
2023/06/10 09:30:41;;;;;;;19.03;10.23;;;;;;;39.92;39.56;101291.00;6183082;23;20807;-80
2023/06/10 09:33:15;;;;;;;19.87;11.50;;;;;;;40.00;39.70;101305.75;6181988;23;20419;-80
2023/06/10 09:58:57;;;;;;;18.60;11.07;;;;;;;39.44;42.14;101264.44;5042593;27;2724401;-84
2023/06/10 10:01:24;;;;;;;21.73;11.47;;;;;;;39.63;41.60;101266.19;5102509;27;20230;-84
2023/06/10 10:03:51;;;;;;;26.27;13.50;;;;;;;39.73;41.07;101272.19;5109377;28;20924;-87
2023/06/10 10:06:19;;;;;;;20.77;12.03;;;;;;;39.71;41.14;101270.88;5128088;28;20407;-87
2023/06/10 10:08:46;;;;;;;26.93;12.80;;;;;;;39.77;40.80;101272.34;5107281;28;20456;-85
2023/06/10 10:11:16;;;;;;;24.17;14.50;;;;;;;39.85;40.95;101265.41;5114691;27;20429;-87
2023/06/10 10:13:46;;;;;;;22.60;10.90;;;;;;;39.91;41.19;101258.72;5110432;28;20420;-84
2023/06/10 10:16:16;;;;;;;20.23;12.03;;;;;;;39.92;40.81;101265.75;5104360;27;20465;-82
2023/06/10 10:18:49;;;;;;;21.90;11.73;;;;;;;39.95;40.78;101271.34;5107519;28;20539;-81
2023/06/10 10:21:19;;;;;;;15.43;10.33;;;;;;;40.06;40.80;101269.22;5106337;28;20434;-80
2023/06/10 10:24:10;;;;;;;20.40;9.80;;;;;;;40.11;40.89;101268.28;5111607;28;20429;-79
2023/06/10 10:26:38;;;;;;;18.47;7.90;;;;;;;40.10;40.69;101278.38;5110765;28;20418;-86
2023/06/10 10:29:14;;;;;;;12.27;8.03;;;;;;;40.13;40.45;101280.44;5105700;28;20993;-86
2023/06/10 10:31:44;;;;;;;15.10;7.73;;;;;;;40.02;40.73;101292.66;5106097;28;20418;-85
2023/06/10 10:34:16;;;;;;;16.97;7.37;;;;;;;40.06;40.16;101290.97;5111186;28;20415;-84
2023/06/10 10:36:43;;;;;;;15.40;8.23;;;;;;;40.22;39.76;101280.50;5098201;28;20475;-85
2023/06/10 10:39:09;;;;;;;15.80;8.37;;;;;;;40.18;39.27;101272.16;5128602;28;20793;-84
2023/06/10 10:41:37;;;;;;;14.23;7.10;;;;;;;40.23;39.83;101282.09;5110731;28;20437;-85
2023/06/10 10:44:07;;;;;;;14.03;7.00;;;;;;;40.28;39.82;101277.34;5110733;28;20435;-85
2023/06/10 10:46:44;;;;;;;20.57;8.80;;;;;;;40.26;39.68;101270.59;5110223;28;20452;-85
2023/06/10 10:49:14;;;;;;;14.33;6.67;;;;;;;40.15;39.66;101264.66;5110982;28;20435;-83
2023/06/10 10:51:58;;;;;;;22.70;9.60;;;;;;;40.01;39.53;101261.16;5095491;28;20806;-83
2023/06/10 10:54:35;;;;;;;13.00;7.80;;;;;;;40.16;39.44;101249.94;5070776;28;20424;-84
2023/06/10 10:57:16;;;;;;;13.43;8.20;;;;;;;40.21;38.98;101249.81;5096034;28;20470;-85
2023/06/10 10:59:56;;;;;;;16.27;8.00;;;;;;;40.25;39.19;101267.06;5087179;28;20434;-85
2023/06/10 11:02:49;;;;;;;15.87;7.83;;;;;;;40.18;39.43;101264.00;5087160;28;20421;-85
2023/06/10 11:05:16;;;;;;;17.53;7.97;;;;;;;40.07;39.25;101261.88;5061631;28;20420;-84
2023/06/10 11:07:55;;;;;;;22.07;7.60;;;;;;;40.09;39.86;101255.03;5085321;28;20413;-83
2023/06/10 11:10:39;;;;;;;21.13;9.43;;;;;;;40.13;39.58;101256.00;5072890;28;20555;-84
2023/06/10 11:13:13;;;;;;;18.40;8.33;;;;;;;40.14;39.56;101263.03;5070356;28;20406;-83
2023/06/10 11:15:50;;;;;;;21.73;6.67;;;;;;;40.15;39.40;101272.81;5072900;28;20630;-83
2023/06/10 11:18:39;;;;;;;17.10;9.07;;;;;;;40.19;39.51;101267.53;5047526;28;20796;-84
2023/06/10 11:21:05;;;;;;;18.07;8.93;;;;;;;40.31;39.63;101269.66;5070083;28;20417;-83
2023/06/10 11:23:37;;;;;;;21.70;8.90;;;;;;;40.16;39.87;101266.25;5071760;28;20418;-83
2023/06/10 11:26:33;;;;;;;12.30;5.53;;;;;;;40.22;39.26;101256.84;5070715;28;20418;-83
2023/06/10 11:28:59;;;;;;;19.43;8.60;;;;;;;40.07;39.93;101251.78;5071184;28;20464;-84
2023/06/10 11:31:33;;;;;;;21.57;5.43;;;;;;;40.13;39.42;101238.88;5074944;28;20414;-84
2023/06/10 11:34:03;;;;;;;15.03;6.17;;;;;;;40.30;39.30;101233.53;5071625;28;20175;-85
2023/06/10 11:36:29;;;;;;;10.23;6.60;;;;;;;40.35;38.70;101240.75;5072729;28;20429;-85
2023/06/10 11:38:57;;;;;;;12.30;7.40;;;;;;;40.35;38.99;101230.66;5068327;28;20758;-85
2023/06/10 11:41:28;;;;;;;15.23;5.53;;;;;;;40.27;38.63;101217.84;5063972;28;20491;-84
2023/06/10 11:43:58;;;;;;;16.30;6.77;;;;;;;40.49;38.86;101212.34;5070454;28;20931;-83